Time;durP1;ratioP1;P1;durP2;ratioP2;P2;SDS_P1;SDS_P2;PMS_P1;PMS_P2;Temp;Humidity;BMP_temperature;BMP_pressure;BME280_temperature;BME280_humidity;BME280_pressure;Samples;Min_cycle;Max_cycle;Signal;HPM_P1;HPM_P2
2023/10/25 00:00:02;;;;;;;11.43;9.10;;;;;;;;;;5127093;27;20446;-74
2023/10/25 00:02:29;;;;;;;13.50;9.40;;;;;;;;;;5131972;28;20545;-74
2023/10/25 00:04:56;;;;;;;12.60;8.73;;;;;;;;;;5133918;27;20448;-74
2023/10/25 00:07:24;;;;;;;10.10;8.33;;;;;;;;;;5127659;27;21010;-75
2023/10/25 00:09:51;;;;;;;14.07;10.07;;;;;;;;;;5137910;27;20484;-75
2023/10/25 00:12:18;;;;;;;10.70;8.30;;;;;;;;;;5129259;27;20461;-75
2023/10/25 00:14:45;;;;;;;10.60;8.87;;;;;;;;;;5137999;27;20964;-75
2023/10/25 00:17:13;;;;;;;12.53;9.27;;;;;;;;;;5129418;27;20452;-75
2023/10/25 00:19:40;;;;;;;12.60;8.73;;;;;;;;;;5129422;27;20453;-75
2023/10/25 00:22:09;;;;;;;10.37;9.03;;;;;;;;;;5129248;27;20504;-75
2023/10/25 00:24:36;;;;;;;11.97;9.57;;;;;;;;;;5134891;27;20460;-75
2023/10/25 00:27:03;;;;;;;12.30;9.33;;;;;;;;;;5132499;27;20448;-75
2023/10/25 00:29:30;;;;;;;13.23;9.60;;;;;;;;;;5128818;27;20456;-75
2023/10/25 00:31:59;;;;;;;16.93;9.23;;;;;;;;;;5129182;27;20468;-75
2023/10/25 00:34:28;;;;;;;14.50;9.60;;;;;;;;;;5137607;27;20456;-75
2023/10/25 00:36:55;;;;;;;10.40;8.63;;;;;;;;;;5128887;27;20448;-75
2023/10/25 00:39:22;;;;;;;10.80;7.33;;;;;;;;;;5128773;27;20940;-75
2023/10/25 00:41:49;;;;;;;11.00;7.73;;;;;;;;;;5132308;27;20995;-75
2023/10/25 00:44:16;;;;;;;9.83;7.03;;;;;;;;;;5133922;27;20539;-75
2023/10/25 00:46:44;;;;;;;9.50;7.80;;;;;;;;;;5133143;27;20944;-75
2023/10/25 00:49:11;;;;;;;9.03;7.63;;;;;;;;;;5133084;27;20453;-75
2023/10/25 00:51:40;;;;;;;11.03;8.07;;;;;;;;;;5125400;27;20457;-75
2023/10/25 00:54:07;;;;;;;10.23;8.20;;;;;;;;;;5132424;27;20463;-75
2023/10/25 00:56:34;;;;;;;10.90;8.07;;;;;;;;;;5128542;27;20456;-75
2023/10/25 00:59:03;;;;;;;16.23;9.20;;;;;;;;;;5130312;27;20449;-75
2023/10/25 01:01:30;;;;;;;10.37;8.93;;;;;;;;;;5133044;27;20500;-75
2023/10/25 01:03:57;;;;;;;11.27;8.30;;;;;;;;;;5131104;27;20452;-75
2023/10/25 01:06:25;;;;;;;10.57;7.87;;;;;;;;;;5128244;27;20445;-75
2023/10/25 01:08:53;;;;;;;6.90;6.10;;;;;;;;;;5131517;27;20457;-75
2023/10/25 01:11:20;;;;;;;10.67;8.40;;;;;;;;;;5133723;27;20469;-75
2023/10/25 01:13:48;;;;;;;10.60;8.30;;;;;;;;;;5128561;27;20452;-75
2023/10/25 01:16:15;;;;;;;11.20;8.20;;;;;;;;;;5126953;27;20460;-75
2023/10/25 01:18:42;;;;;;;11.37;7.70;;;;;;;;;;5135364;27;20449;-75
2023/10/25 01:21:10;;;;;;;9.17;7.23;;;;;;;;;;5136451;27;20994;-75
2023/10/25 01:23:41;;;;;;;8.50;7.20;;;;;;;;;;5136419;27;20449;-75
2023/10/25 01:26:08;;;;;;;10.60;8.47;;;;;;;;;;5128191;27;20471;-75
2023/10/25 01:28:35;;;;;;;8.20;6.83;;;;;;;;;;5136190;27;20465;-75
2023/10/25 01:31:03;;;;;;;6.83;6.13;;;;;;;;;;5127961;27;20475;-75
2023/10/25 01:33:30;;;;;;;7.33;6.63;;;;;;;;;;5127767;27;20456;-75
2023/10/25 01:35:57;;;;;;;13.50;7.37;;;;;;;;;;5136495;27;20449;-75
2023/10/25 01:38:24;;;;;;;7.47;6.73;;;;;;;;;;5135057;27;20551;-75
2023/10/25 01:40:53;;;;;;;10.30;8.00;;;;;;;;;;5124115;27;20963;-75
2023/10/25 01:43:21;;;;;;;8.43;7.30;;;;;;;;;;5131953;27;20833;-75
2023/10/25 01:45:48;;;;;;;8.17;7.33;;;;;;;;;;5131585;27;20465;-75
2023/10/25 01:48:16;;;;;;;9.77;7.77;;;;;;;;;;5132568;27;20823;-75
2023/10/25 01:50:43;;;;;;;12.27;6.57;;;;;;;;;;5131425;27;20578;-75
2023/10/25 01:53:14;;;;;;;9.57;8.37;;;;;;;;;;5132053;27;20840;-75
2023/10/25 01:55:43;;;;;;;12.83;8.83;;;;;;;;;;5127970;27;20448;-75
2023/10/25 01:58:11;;;;;;;11.63;9.10;;;;;;;;;;5127542;27;20440;-75
2023/10/25 02:00:39;;;;;;;12.67;8.60;;;;;;;;;;5135696;27;20449;-75
2023/10/25 02:03:08;;;;;;;10.93;8.83;;;;;;;;;;5135782;27;20567;-75
2023/10/25 02:05:38;;;;;;;12.20;7.97;;;;;;;;;;5127297;27;20511;-75
2023/10/25 02:08:05;;;;;;;11.67;9.47;;;;;;;;;;5135835;27;21019;-75
2023/10/25 02:10:33;;;;;;;14.50;9.93;;;;;;;;;;5132951;27;20825;-75
2023/10/25 02:13:00;;;;;;;12.93;9.40;;;;;;;;;;5129984;27;21087;-75
2023/10/25 02:15:29;;;;;;;16.10;10.27;;;;;;;;;;5134246;27;20452;-75
2023/10/25 02:17:56;;;;;;;14.90;10.87;;;;;;;;;;5127176;27;20445;-75
2023/10/25 02:20:24;;;;;;;16.83;8.50;;;;;;;;;;5126665;27;20452;-75
2023/10/25 02:22:51;;;;;;;14.67;11.80;;;;;;;;;;5126860;27;20576;-75
2023/10/25 02:25:18;;;;;;;12.60;9.27;;;;;;;;;;5135234;27;20460;-75
2023/10/25 02:27:46;;;;;;;17.03;9.87;;;;;;;;;;5127130;27;20935;-75
2023/10/25 02:30:13;;;;;;;13.63;9.83;;;;;;;;;;5134977;27;20449;-75
2023/10/25 02:32:41;;;;;;;15.53;9.50;;;;;;;;;;5135213;27;20469;-75
2023/10/25 02:35:10;;;;;;;12.60;10.07;;;;;;;;;;5135069;27;20456;-74
2023/10/25 02:37:37;;;;;;;10.77;8.13;;;;;;;;;;5126671;27;20441;-74
2023/10/25 02:40:07;;;;;;;11.13;8.60;;;;;;;;;;5134100;27;20461;-74
2023/10/25 02:42:35;;;;;;;13.97;10.57;;;;;;;;;;5134713;27;20506;-74
2023/10/25 02:45:02;;;;;;;13.27;9.10;;;;;;;;;;5128606;27;20829;-74
2023/10/25 02:47:29;;;;;;;13.03;9.30;;;;;;;;;;5124995;27;20454;-74
2023/10/25 02:50:00;;;;;;;14.40;10.10;;;;;;;;;;5129083;27;20979;-75
2023/10/25 02:52:27;;;;;;;14.30;10.37;;;;;;;;;;5132832;27;20975;-74
2023/10/25 02:54:55;;;;;;;15.53;11.63;;;;;;;;;;5129411;27;20472;-75
2023/10/25 02:57:22;;;;;;;17.30;11.30;;;;;;;;;;5131946;27;20448;-75
2023/10/25 02:59:51;;;;;;;15.93;9.73;;;;;;;;;;5134554;27;20452;-75
2023/10/25 03:02:18;;;;;;;16.37;10.83;;;;;;;;;;5126004;27;20563;-75
2023/10/25 03:04:45;;;;;;;17.97;10.70;;;;;;;;;;5134820;27;20456;-75
2023/10/25 03:07:14;;;;;;;16.20;10.87;;;;;;;;;;5134846;27;20452;-75
2023/10/25 03:09:41;;;;;;;15.37;10.40;;;;;;;;;;5125965;27;20460;-75
2023/10/25 03:12:08;;;;;;;17.70;11.60;;;;;;;;;;5126130;27;20504;-75
2023/10/25 03:14:35;;;;;;;13.73;10.17;;;;;;;;;;5125969;27;21098;-75
2023/10/25 03:17:03;;;;;;;11.70;9.13;;;;;;;;;;5128046;27;20466;-74
2023/10/25 03:19:30;;;;;;;14.40;11.00;;;;;;;;;;5132553;27;20456;-75
2023/10/25 03:21:57;;;;;;;11.77;9.97;;;;;;;;;;5125936;27;20990;-75
2023/10/25 03:24:28;;;;;;;13.47;9.53;;;;;;;;;;5132879;27;20448;-75
2023/10/25 03:26:55;;;;;;;11.27;9.30;;;;;;;;;;5128015;27;20448;-75
2023/10/25 03:29:22;;;;;;;12.13;9.03;;;;;;;;;;5125497;27;20457;-75
2023/10/25 03:31:50;;;;;;;12.40;9.03;;;;;;;;;;5134032;27;20479;-75
2023/10/25 03:34:18;;;;;;;18.30;9.33;;;;;;;;;;5125691;27;20505;-75
2023/10/25 03:36:46;;;;;;;13.20;9.57;;;;;;;;;;5129764;27;20520;-75
2023/10/25 03:39:15;;;;;;;16.13;9.43;;;;;;;;;;5130099;27;20985;-75
2023/10/25 03:41:44;;;;;;;18.23;10.27;;;;;;;;;;5125140;27;20846;-75
2023/10/25 03:44:11;;;;;;;16.40;12.23;;;;;;;;;;5134053;27;20459;-75
2023/10/25 03:46:39;;;;;;;17.40;11.40;;;;;;;;;;5125583;27;20977;-75
2023/10/25 03:49:06;;;;;;;16.20;11.87;;;;;;;;;;5133908;27;20455;-75
2023/10/25 03:51:33;;;;;;;16.43;11.33;;;;;;;;;;5125120;27;20849;-75
2023/10/25 03:54:00;;;;;;;17.00;10.40;;;;;;;;;;5133867;27;20452;-74
2023/10/25 03:56:27;;;;;;;17.17;12.27;;;;;;;;;;5125189;27;20953;-74
2023/10/25 03:58:56;;;;;;;19.17;12.13;;;;;;;;;;5133647;27;20460;-75
2023/10/25 04:01:23;;;;;;;18.70;12.20;;;;;;;;;;5125142;27;20505;-75
2023/10/25 04:03:50;;;;;;;13.70;11.53;;;;;;;;;;5125436;27;20842;-75
2023/10/25 04:06:17;;;;;;;22.70;13.43;;;;;;;;;;5125129;27;20460;-75
2023/10/25 04:08:44;;;;;;;15.60;12.50;;;;;;;;;;5133592;27;20452;-75
2023/10/25 04:11:11;;;;;;;16.03;11.67;;;;;;;;;;5133739;28;20472;-75
2023/10/25 04:13:38;;;;;;;16.10;12.10;;;;;;;;;;5125104;28;20444;-75
2023/10/25 04:16:09;;;;;;;19.50;14.17;;;;;;;;;;5133791;28;20452;-75
2023/10/25 04:18:36;;;;;;;18.90;13.00;;;;;;;;;;5133649;28;20975;-75
2023/10/25 04:21:04;;;;;;;25.37;11.40;;;;;;;;;;5123952;28;20472;-75
2023/10/25 04:23:32;;;;;;;16.30;10.33;;;;;;;;;;5133851;28;20492;-75
2023/10/25 04:26:06;;;;;;;17.37;11.40;;;;;;;;;;5125127;28;20445;-75
2023/10/25 04:28:33;;;;;;;17.43;12.37;;;;;;;;;;5124826;28;20464;-75
2023/10/25 04:31:01;;;;;;;21.37;14.63;;;;;;;;;;5133413;28;20990;-75
2023/10/25 04:33:30;;;;;;;19.80;13.23;;;;;;;;;;5133593;28;20449;-75
2023/10/25 04:35:57;;;;;;;17.70;13.20;;;;;;;;;;5127623;28;20491;-75
2023/10/25 04:38:24;;;;;;;20.80;13.03;;;;;;;;;;5130862;28;20452;-75
2023/10/25 04:40:52;;;;;;;21.40;14.30;;;;;;;;;;5133309;28;20444;-75
2023/10/25 04:43:19;;;;;;;21.77;14.40;;;;;;;;;;5133124;28;20861;-75
2023/10/25 04:45:48;;;;;;;23.73;14.77;;;;;;;;;;5129105;28;20472;-75
2023/10/25 04:48:16;;;;;;;23.57;15.13;;;;;;;;;;5129896;28;20453;-75
2023/10/25 04:50:45;;;;;;;18.90;12.40;;;;;;;;;;5126278;27;20465;-75
2023/10/25 04:53:12;;;;;;;19.60;14.53;;;;;;;;;;5130929;27;20485;-75
2023/10/25 04:55:39;;;;;;;23.17;17.10;;;;;;;;;;5125437;27;20796;-75
2023/10/25 04:58:06;;;;;;;21.07;15.63;;;;;;;;;;5132311;27;20455;-75
2023/10/25 05:00:34;;;;;;;21.43;14.53;;;;;;;;;;5128357;27;20452;-75
2023/10/25 05:03:04;;;;;;;20.63;15.77;;;;;;;;;;5127386;27;20488;-75
2023/10/25 05:05:32;;;;;;;18.30;13.50;;;;;;;;;;5136480;27;20460;-75
2023/10/25 05:08:01;;;;;;;17.90;13.73;;;;;;;;;;5130699;27;20469;-75
2023/10/25 05:10:33;;;;;;;24.17;16.23;;;;;;;;;;5131516;27;20457;-75
2023/10/25 05:13:01;;;;;;;19.23;13.43;;;;;;;;;;5131479;27;20950;-75
2023/10/25 05:15:31;;;;;;;19.30;13.93;;;;;;;;;;5134311;27;20460;-75
2023/10/25 05:17:58;;;;;;;23.63;18.30;;;;;;;;;;5124848;27;20473;-75
2023/10/25 05:20:26;;;;;;;23.03;15.10;;;;;;;;;;5132780;27;20463;-75
2023/10/25 05:22:53;;;;;;;22.47;14.70;;;;;;;;;;5129158;27;20522;-75
2023/10/25 05:25:22;;;;;;;22.07;14.10;;;;;;;;;;5127725;27;20449;-75
2023/10/25 05:27:50;;;;;;;19.80;13.60;;;;;;;;;;5136607;27;20543;-75
2023/10/25 05:30:20;;;;;;;24.23;13.60;;;;;;;;;;5127645;27;20450;-76
2023/10/25 05:32:47;;;;;;;24.27;16.43;;;;;;;;;;5136401;27;20986;-75
2023/10/25 05:35:15;;;;;;;26.37;14.40;;;;;;;;;;5136350;27;20471;-75
2023/10/25 05:37:44;;;;;;;20.30;13.23;;;;;;;;;;5123127;27;20503;-75
2023/10/25 05:40:11;;;;;;;20.77;14.87;;;;;;;;;;5131748;27;20642;-75
2023/10/25 05:42:44;;;;;;;19.53;13.60;;;;;;;;;;5127416;27;20503;-75
2023/10/25 05:45:11;;;;;;;23.40;16.43;;;;;;;;;;5135469;27;20448;-75
2023/10/25 05:47:39;;;;;;;20.33;14.03;;;;;;;;;;5127318;27;20445;-75
2023/10/25 05:50:06;;;;;;;44.43;30.47;;;;;;;;;;5135059;27;20938;-75
2023/10/25 05:52:34;;;;;;;19.00;14.47;;;;;;;;;;5123520;27;20461;-75
2023/10/25 05:55:01;;;;;;;17.70;12.83;;;;;;;;;;5128773;27;20448;-75
2023/10/25 05:57:29;;;;;;;18.10;13.07;;;;;;;;;;5126028;27;20828;-75
2023/10/25 05:59:58;;;;;;;19.13;13.93;;;;;;;;;;5134294;27;20448;-75
2023/10/25 06:02:29;;;;;;;17.57;13.57;;;;;;;;;;5127591;27;20491;-75
2023/10/25 06:04:57;;;;;;;15.33;12.10;;;;;;;;;;5124102;27;20447;-75
2023/10/25 06:07:25;;;;;;;26.57;19.30;;;;;;;;;;5132291;27;20464;-75
2023/10/25 06:09:52;;;;;;;22.00;14.47;;;;;;;;;;5126218;27;20444;-75
2023/10/25 06:12:21;;;;;;;19.20;13.83;;;;;;;;;;5124377;27;20533;-75
2023/10/25 06:14:48;;;;;;;23.83;14.20;;;;;;;;;;5133087;27;20463;-75
2023/10/25 06:17:17;;;;;;;18.43;12.93;;;;;;;;;;5124403;27;20936;-75
2023/10/25 06:19:44;;;;;;;18.80;13.00;;;;;;;;;;5124885;27;20463;-75
2023/10/25 06:22:12;;;;;;;16.23;12.60;;;;;;;;;;5125354;27;20480;-75
2023/10/25 06:24:39;;;;;;;20.50;12.77;;;;;;;;;;5125663;27;20480;-74
2023/10/25 06:27:07;;;;;;;20.30;13.20;;;;;;;;;;5127007;27;20471;-75
2023/10/25 06:29:35;;;;;;;16.13;12.43;;;;;;;;;;5130303;27;20456;-75
2023/10/25 06:32:02;;;;;;;20.20;14.07;;;;;;;;;;5122497;27;20531;-75
2023/10/25 06:34:31;;;;;;;16.40;10.80;;;;;;;;;;5124253;27;20492;-75
2023/10/25 06:36:58;;;;;;;15.07;11.60;;;;;;;;;;5125695;27;20456;-75
2023/10/25 06:39:26;;;;;;;11.17;9.77;;;;;;;;;;5125205;27;20534;-75
2023/10/25 06:41:54;;;;;;;15.27;11.67;;;;;;;;;;5125430;27;20484;-75
2023/10/25 06:44:21;;;;;;;12.57;9.47;;;;;;;;;;5125463;27;21073;-75
2023/10/25 06:46:50;;;;;;;10.87;9.47;;;;;;;;;;5125772;27;20464;-75
2023/10/25 06:49:17;;;;;;;14.17;10.57;;;;;;;;;;5125203;27;20445;-75
2023/10/25 06:51:46;;;;;;;14.97;11.60;;;;;;;;;;5121392;27;20474;-75
2023/10/25 06:57:17;;;;;;;15.97;11.90;;;;;;;;;;5121686;27;20488;-75
2023/10/25 06:59:45;;;;;;;13.27;10.07;;;;;;;;;;5125303;27;20464;-75
2023/10/25 07:02:28;;;;;;;13.17;9.60;;;;;;;;;;5124877;27;20885;-75
2023/10/25 07:04:58;;;;;;;14.30;10.10;;;;;;;;;;5126156;27;20496;-75
2023/10/25 07:07:30;;;;;;;12.87;10.07;;;;;;;;;;5124786;27;20548;-75
2023/10/25 07:09:57;;;;;;;11.20;9.40;;;;;;;;;;5133562;27;20452;-75
2023/10/25 07:12:24;;;;;;;13.87;11.50;;;;;;;;;;5124791;27;20571;-75
2023/10/25 07:14:51;;;;;;;19.03;10.67;;;;;;;;;;5130823;27;20449;-75
2023/10/25 07:17:18;;;;;;;13.70;11.20;;;;;;;;;;5131309;27;21011;-75
2023/10/25 07:19:47;;;;;;;17.90;11.27;;;;;;;;;;5123127;27;20449;-75
2023/10/25 07:22:14;;;;;;;14.80;10.67;;;;;;;;;;5123574;27;20992;-75
2023/10/25 07:24:42;;;;;;;17.07;12.30;;;;;;;;;;5123314;27;20861;-74
2023/10/25 07:27:09;;;;;;;17.50;12.90;;;;;;;;;;5124471;27;20561;-74
2023/10/25 07:29:37;;;;;;;16.27;11.17;;;;;;;;;;5131065;27;20572;-74
2023/10/25 07:32:04;;;;;;;16.07;12.30;;;;;;;;;;5131729;27;20477;-74
2023/10/25 07:34:31;;;;;;;14.43;11.27;;;;;;;;;;5123150;27;20467;-74
2023/10/25 07:36:58;;;;;;;12.03;10.40;;;;;;;;;;5117932;27;20940;-75
2023/10/25 07:39:25;;;;;;;9.97;8.97;;;;;;;;;;5119546;27;20535;-75
2023/10/25 07:41:54;;;;;;;7.60;6.40;;;;;;;;;;5120129;27;20480;-75
2023/10/25 07:44:21;;;;;;;7.30;6.60;;;;;;;;;;5120429;27;20539;-74
2023/10/25 07:46:48;;;;;;;8.00;6.57;;;;;;;;;;5127126;27;20631;-74
2023/10/25 07:49:15;;;;;;;8.13;6.63;;;;;;;;;;5120783;27;20457;-75
2023/10/25 07:51:42;;;;;;;7.47;6.30;;;;;;;;;;5120975;27;20947;-75
2023/10/25 07:54:09;;;;;;;6.50;5.90;;;;;;;;;;5113260;28;20441;-75
2023/10/25 07:56:37;;;;;;;6.13;5.63;;;;;;;;;;5124243;27;20973;-76
2023/10/25 07:59:05;;;;;;;6.43;5.70;;;;;;;;;;5126314;27;20454;-75
2023/10/25 08:01:32;;;;;;;8.10;6.93;;;;;;;;;;5123120;27;20833;-75
2023/10/25 08:03:59;;;;;;;9.30;8.50;;;;;;;;;;5124003;27;20477;-75
2023/10/25 08:06:26;;;;;;;8.33;6.13;;;;;;;;;;5123384;27;20772;-75
2023/10/25 08:08:54;;;;;;;6.17;5.57;;;;;;;;;;5119020;27;20477;-76
2023/10/25 08:11:21;;;;;;;6.30;5.70;;;;;;;;;;5129132;27;20465;-74
2023/10/25 08:13:48;;;;;;;7.03;6.43;;;;;;;;;;5125403;28;20451;-74
2023/10/25 08:16:16;;;;;;;6.33;5.83;;;;;;;;;;5122465;28;20456;-76
2023/10/25 08:18:43;;;;;;;6.30;5.70;;;;;;;;;;5123221;28;20966;-76
2023/10/25 08:21:13;;;;;;;7.40;6.70;;;;;;;;;;5116580;28;20462;-76
2023/10/25 08:23:41;;;;;;;7.67;6.63;;;;;;;;;;5121023;28;20478;-76
2023/10/25 08:26:08;;;;;;;7.67;6.87;;;;;;;;;;5128278;28;20459;-76
2023/10/25 08:28:35;;;;;;;7.20;6.60;;;;;;;;;;5127007;27;20439;-76
2023/10/25 08:31:10;;;;;;;7.50;5.80;;;;;;;;;;5136937;27;20457;-76
2023/10/25 08:33:39;;;;;;;6.67;6.13;;;;;;;;;;5134486;27;20457;-76
2023/10/25 08:36:07;;;;;;;7.23;6.17;;;;;;;;;;5123331;27;20467;-76
2023/10/25 08:38:35;;;;;;;9.87;6.57;;;;;;;;;;5136925;27;20445;-76
2023/10/25 08:41:03;;;;;;;5.77;5.27;;;;;;;;;;5136799;27;20461;-76
2023/10/25 08:43:30;;;;;;;6.80;6.20;;;;;;;;;;5136790;27;20532;-76
2023/10/25 08:45:58;;;;;;;7.50;6.47;;;;;;;;;;5136704;27;20457;-76
2023/10/25 08:48:26;;;;;;;6.60;6.00;;;;;;;;;;5127557;27;20956;-76
2023/10/25 08:50:55;;;;;;;7.17;6.57;;;;;;;;;;5116476;28;20996;-76
2023/10/25 08:53:24;;;;;;;5.33;4.93;;;;;;;;;;5116103;28;20449;-76
2023/10/25 08:55:52;;;;;;;5.27;4.87;;;;;;;;;;5116232;28;20935;-76
2023/10/25 08:58:19;;;;;;;5.93;5.17;;;;;;;;;;5116073;28;21000;-76
2023/10/25 09:00:47;;;;;;;6.40;5.47;;;;;;;;;;5115807;28;20597;-76
2023/10/25 09:03:29;;;;;;;5.87;5.33;;;;;;;;;;5115916;28;20446;-76
2023/10/25 09:05:57;;;;;;;5.63;4.10;;;;;;;;;;5129683;27;20452;-76
2023/10/25 09:08:24;;;;;;;5.27;4.77;;;;;;;;;;5136361;27;20448;-76
2023/10/25 09:10:55;;;;;;;4.00;3.70;;;;;;;;;;5136417;27;20923;-76
2023/10/25 09:13:23;;;;;;;4.37;3.97;;;;;;;;;;5136562;27;20440;-76
2023/10/25 09:15:50;;;;;;;5.70;4.60;;;;;;;;;;5136464;27;20896;-76
2023/10/25 09:18:17;;;;;;;4.93;4.53;;;;;;;;;;5127505;27;20450;-76
2023/10/25 09:20:49;;;;;;;4.40;4.00;;;;;;;;;;5115600;28;20475;-76
2023/10/25 09:23:18;;;;;;;7.23;3.80;;;;;;;;;;5115925;28;20527;-76
2023/10/25 09:25:45;;;;;;;4.20;3.80;;;;;;;;;;5128564;27;20445;-77
2023/10/25 09:28:16;;;;;;;3.70;2.50;;;;;;;;;;5128357;27;20455;-77
2023/10/25 09:30:44;;;;;;;3.57;2.93;;;;;;;;;;5128082;27;20433;-78
2023/10/25 09:33:11;;;;;;;2.20;1.70;;;;;;;;;;5128143;27;20861;-77
2023/10/25 09:35:38;;;;;;;3.80;3.50;;;;;;;;;;5132718;27;20450;-77
2023/10/25 09:38:05;;;;;;;2.37;2.17;;;;;;;;;;5130821;27;20452;-77
2023/10/25 09:40:37;;;;;;;1.50;1.40;;;;;;;;;;5126005;27;20454;-77
2023/10/25 09:43:08;;;;;;;4.47;2.47;;;;;;;;;;5136220;27;20509;-77
2023/10/25 09:45:36;;;;;;;2.67;2.47;;;;;;;;;;5133441;27;20544;-77
2023/10/25 09:48:06;;;;;;;3.30;2.87;;;;;;;;;;5130718;27;20460;-77
2023/10/25 09:50:34;;;;;;;3.37;3.07;;;;;;;;;;5133829;27;20545;-77
2023/10/25 09:53:04;;;;;;;3.00;2.70;;;;;;;;;;5123593;27;20537;-78
2023/10/25 09:55:33;;;;;;;2.97;2.77;;;;;;;;;;5132328;27;20504;-76
2023/10/25 09:58:02;;;;;;;2.73;2.53;;;;;;;;;;5130444;27;20463;-77
2023/10/25 10:00:29;;;;;;;3.60;3.07;;;;;;;;;;5135449;27;20458;-77
2023/10/25 10:03:01;;;;;;;3.60;2.90;;;;;;;;;;5130499;27;20481;-77
2023/10/25 10:05:30;;;;;;;3.23;2.97;;;;;;;;;;5133969;27;20863;-78
2023/10/25 10:08:01;;;;;;;2.93;2.70;;;;;;;;;;5136272;27;20461;-77
2023/10/25 10:10:30;;;;;;;3.00;2.70;;;;;;;;;;5126077;27;20528;-77
2023/10/25 10:12:57;;;;;;;7.90;1.93;;;;;;;;;;5124472;27;20473;-78
2023/10/25 10:15:47;;;;;;;2.93;2.73;;;;;;;;;;5124531;27;20457;-77
2023/10/25 10:18:14;;;;;;;2.67;2.40;;;;;;;;;;5126822;27;20460;-77
2023/10/25 10:20:41;;;;;;;3.00;2.23;;;;;;;;;;5134126;27;20452;-76
2023/10/25 10:23:10;;;;;;;3.60;2.33;;;;;;;;;;5135338;27;20452;-78
2023/10/25 10:25:46;;;;;;;2.30;2.10;;;;;;;;;;5125741;27;20517;-76
2023/10/25 10:28:14;;;;;;;3.13;2.40;;;;;;;;;;5126530;27;20456;-75
2023/10/25 10:30:42;;;;;;;3.63;2.30;;;;;;;;;;5125313;27;20464;-76
2023/10/25 10:33:10;;;;;;;5.37;2.80;;;;;;;;;;5126963;27;20453;-75
2023/10/25 10:35:41;;;;;;;2.60;2.40;;;;;;;;;;5130648;27;20988;-76
2023/10/25 10:38:09;;;;;;;4.03;2.40;;;;;;;;;;5129416;27;20527;-75
2023/10/25 10:40:36;;;;;;;2.50;2.30;;;;;;;;;;5133875;27;20456;-76
2023/10/25 10:43:06;;;;;;;2.30;2.10;;;;;;;;;;5127733;27;20454;-77
2023/10/25 10:45:34;;;;;;;3.20;2.90;;;;;;;;;;5125364;27;20497;-77
2023/10/25 10:48:09;;;;;;;3.07;2.77;;;;;;;;;;5134653;27;20452;-77
2023/10/25 10:50:39;;;;;;;3.60;3.27;;;;;;;;;;5125923;27;20463;-77
2023/10/25 10:53:07;;;;;;;3.13;2.83;;;;;;;;;;5135062;27;20946;-77
2023/10/25 10:55:34;;;;;;;3.77;3.43;;;;;;;;;;5126443;27;20460;-77
2023/10/25 10:58:02;;;;;;;5.43;2.70;;;;;;;;;;5129923;27;20454;-77
2023/10/25 11:00:29;;;;;;;2.73;2.50;;;;;;;;;;5124416;27;20461;-77
2023/10/25 11:02:57;;;;;;;2.80;2.60;;;;;;;;;;5133784;27;20472;-76
2023/10/25 11:05:26;;;;;;;3.83;3.40;;;;;;;;;;5133441;27;20498;-76
2023/10/25 11:07:54;;;;;;;3.57;3.00;;;;;;;;;;5125153;27;20448;-76
2023/10/25 11:10:22;;;;;;;2.97;2.67;;;;;;;;;;5124809;27;20457;-76
2023/10/25 11:12:49;;;;;;;2.63;2.43;;;;;;;;;;5129091;27;20488;-76
2023/10/25 11:15:19;;;;;;;4.20;2.80;;;;;;;;;;5129460;27;20449;-75
2023/10/25 11:17:46;;;;;;;2.30;2.10;;;;;;;;;;5125127;27;20508;-76
2023/10/25 11:20:14;;;;;;;3.27;2.77;;;;;;;;;;5133175;27;20463;-76
2023/10/25 11:22:42;;;;;;;3.13;2.93;;;;;;;;;;5124915;27;20481;-76
2023/10/25 11:25:10;;;;;;;2.70;2.50;;;;;;;;;;5133453;27;20492;-74
2023/10/25 11:27:38;;;;;;;3.53;2.57;;;;;;;;;;5133749;27;20508;-74
2023/10/25 11:30:05;;;;;;;2.87;2.30;;;;;;;;;;5133852;27;20444;-74
2023/10/25 11:32:33;;;;;;;2.57;2.37;;;;;;;;;;5133276;27;20871;-74
2023/10/25 11:35:00;;;;;;;2.70;2.50;;;;;;;;;;5133822;27;20477;-74
2023/10/25 11:37:28;;;;;;;2.70;2.50;;;;;;;;;;5133528;27;20950;-74
2023/10/25 11:39:57;;;;;;;3.60;2.50;;;;;;;;;;5133303;27;20821;-75
2023/10/25 11:42:24;;;;;;;3.00;2.80;;;;;;;;;;5133520;27;20529;-75
2023/10/25 11:44:51;;;;;;;5.10;2.07;;;;;;;;;;5133772;27;20480;-75
2023/10/25 11:47:19;;;;;;;2.90;2.33;;;;;;;;;;5133393;27;20818;-76
2023/10/25 11:49:52;;;;;;;2.37;2.17;;;;;;;;;;5133520;27;20947;-75
2023/10/25 11:52:21;;;;;;;2.60;2.40;;;;;;;;;;5133439;27;20879;-75
2023/10/25 11:54:49;;;;;;;2.50;2.30;;;;;;;;;;5133407;27;20961;-75
2023/10/25 11:57:18;;;;;;;3.37;2.87;;;;;;;;;;5133418;27;20457;-75
2023/10/25 11:59:45;;;;;;;2.37;2.17;;;;;;;;;;5133391;27;20455;-75
2023/10/25 12:02:12;;;;;;;3.03;2.83;;;;;;;;;;5132742;27;20579;-75
2023/10/25 12:04:39;;;;;;;2.80;2.50;;;;;;;;;;5133355;27;20850;-75
2023/10/25 12:07:06;;;;;;;3.37;3.07;;;;;;;;;;5133305;27;20448;-75
2023/10/25 12:09:33;;;;;;;2.80;2.60;;;;;;;;;;5133287;28;20942;-75
2023/10/25 12:12:01;;;;;;;3.03;2.47;;;;;;;;;;5133298;28;20479;-75
2023/10/25 12:14:29;;;;;;;2.70;2.50;;;;;;;;;;5133053;28;20459;-75
2023/10/25 12:16:58;;;;;;;3.00;2.37;;;;;;;;;;5133281;28;20463;-74
2023/10/25 12:19:25;;;;;;;3.47;2.20;;;;;;;;;;5133200;28;20460;-74
2023/10/25 12:21:55;;;;;;;2.70;2.50;;;;;;;;;;5133042;28;20490;-74
2023/10/25 12:24:23;;;;;;;2.40;1.93;;;;;;;;;;5133246;28;20505;-73
2023/10/25 12:26:50;;;;;;;2.20;2.00;;;;;;;;;;5133765;28;20444;-75
2023/10/25 12:29:17;;;;;;;3.00;2.37;;;;;;;;;;5133757;28;20471;-75
2023/10/25 12:31:46;;;;;;;1.97;1.77;;;;;;;;;;5133225;28;20838;-75
2023/10/25 12:34:13;;;;;;;2.37;2.10;;;;;;;;;;5132915;28;20452;-75
2023/10/25 12:36:41;;;;;;;2.90;2.27;;;;;;;;;;5132936;28;20449;-75
2023/10/25 12:39:08;;;;;;;2.63;2.43;;;;;;;;;;5133043;28;20459;-75
2023/10/25 12:41:35;;;;;;;5.50;5.00;;;;;;;;;;5132917;28;20472;-75
2023/10/25 12:44:04;;;;;;;2.63;2.43;;;;;;;;;;5132885;28;20454;-75
2023/10/25 12:46:32;;;;;;;3.63;3.33;;;;;;;;;;5132682;28;20484;-75
2023/10/25 12:49:00;;;;;;;4.37;2.20;;;;;;;;;;5132792;28;20448;-75
2023/10/25 12:51:27;;;;;;;2.97;2.67;;;;;;;;;;5132865;28;20467;-75
2023/10/25 12:53:54;;;;;;;3.93;3.33;;;;;;;;;;5132928;28;20452;-74
2023/10/25 12:56:21;;;;;;;3.50;3.20;;;;;;;;;;5132923;28;20451;-76
2023/10/25 12:58:49;;;;;;;5.23;2.50;;;;;;;;;;5132828;28;20965;-76
2023/10/25 13:01:16;;;;;;;2.70;2.50;;;;;;;;;;5132582;28;20475;-75
2023/10/25 13:03:43;;;;;;;3.33;2.30;;;;;;;;;;5132958;28;20451;-73
2023/10/25 13:06:11;;;;;;;4.97;3.93;;;;;;;;;;5132336;28;20998;-75
2023/10/25 13:08:39;;;;;;;4.23;3.00;;;;;;;;;;5132342;28;20467;-75
2023/10/25 13:11:07;;;;;;;2.63;2.43;;;;;;;;;;5132185;27;20484;-73
2023/10/25 13:13:34;;;;;;;3.30;2.90;;;;;;;;;;5131790;27;20452;-74
2023/10/25 13:16:01;;;;;;;3.10;2.50;;;;;;;;;;5129005;27;20449;-74
2023/10/25 13:18:28;;;;;;;4.70;3.30;;;;;;;;;;5133758;27;20448;-75
2023/10/25 13:20:55;;;;;;;4.23;2.90;;;;;;;;;;5135419;27;20563;-73
2023/10/25 13:23:26;;;;;;;3.70;3.40;;;;;;;;;;5134772;27;20475;-74
2023/10/25 13:25:54;;;;;;;2.50;2.30;;;;;;;;;;5128557;27;20488;-74
2023/10/25 13:28:21;;;;;;;3.43;3.13;;;;;;;;;;5134940;27;20961;-75
2023/10/25 13:30:48;;;;;;;3.00;2.70;;;;;;;;;;5127367;27;20455;-74
2023/10/25 13:33:15;;;;;;;2.80;2.60;;;;;;;;;;5126865;27;20919;-75
2023/10/25 13:35:42;;;;;;;3.60;3.30;;;;;;;;;;5126838;27;20453;-74
2023/10/25 13:38:09;;;;;;;3.40;3.10;;;;;;;;;;5128155;27;20450;-75
2023/10/25 13:40:38;;;;;;;3.10;2.80;;;;;;;;;;5131449;27;20461;-74
2023/10/25 13:43:05;;;;;;;3.50;2.13;;;;;;;;;;5129674;27;20462;-74
2023/10/25 13:45:32;;;;;;;3.10;2.80;;;;;;;;;;5126358;27;20862;-73
2023/10/25 13:47:59;;;;;;;2.93;2.63;;;;;;;;;;5135306;27;20453;-73
2023/10/25 13:50:26;;;;;;;3.70;3.00;;;;;;;;;;5126119;27;20464;-74
2023/10/25 13:52:53;;;;;;;2.73;2.53;;;;;;;;;;5134945;27;21005;-75
2023/10/25 13:55:21;;;;;;;3.20;2.20;;;;;;;;;;5134354;27;20459;-73
2023/10/25 13:57:49;;;;;;;3.20;2.57;;;;;;;;;;5126918;27;20505;-75
2023/10/25 14:00:16;;;;;;;2.37;2.17;;;;;;;;;;5134622;27;20503;-73
2023/10/25 14:02:43;;;;;;;2.50;2.30;;;;;;;;;;5126320;27;20996;-73
2023/10/25 14:05:11;;;;;;;3.10;2.90;;;;;;;;;;5134687;27;20492;-75
2023/10/25 14:07:38;;;;;;;2.77;2.27;;;;;;;;;;5131744;27;20457;-73
2023/10/25 14:10:08;;;;;;;3.13;2.30;;;;;;;;;;5129324;27;20459;-75
2023/10/25 14:12:35;;;;;;;5.00;3.23;;;;;;;;;;5125988;27;20556;-73
2023/10/25 14:15:04;;;;;;;2.63;2.43;;;;;;;;;;5126197;27;20455;-73
2023/10/25 14:17:31;;;;;;;2.80;2.40;;;;;;;;;;5132704;27;21038;-73
2023/10/25 14:19:58;;;;;;;3.60;2.80;;;;;;;;;;5127964;27;20452;-74
2023/10/25 14:22:25;;;;;;;2.90;2.50;;;;;;;;;;5125571;27;20481;-74
2023/10/25 14:24:53;;;;;;;3.33;3.03;;;;;;;;;;5134045;27;20453;-75
2023/10/25 14:27:20;;;;;;;4.10;2.43;;;;;;;;;;5134178;27;20452;-75
2023/10/25 14:29:47;;;;;;;2.20;2.00;;;;;;;;;;5125496;27;20453;-74
2023/10/25 14:32:15;;;;;;;2.50;2.00;;;;;;;;;;5134107;27;20515;-75
2023/10/25 14:34:42;;;;;;;3.13;2.33;;;;;;;;;;5122551;27;20820;-75
2023/10/25 14:37:10;;;;;;;6.10;2.40;;;;;;;;;;5122037;27;20442;-75
2023/10/25 14:39:37;;;;;;;2.57;2.33;;;;;;;;;;5124402;27;20633;-75